Tiempo atmosférico en la estación meteorológica de Fuentesauco, Zamora (811 m.)

Fecha
DESCASC
Temp. máxima en grados centígrados (hora)
DESCASC
Temp. mínima en grados centígrados (hora)
DESCASC
Temp. media en grados centígrados
DESCASC
Racha de viento máxima en m/sg (hora)
DESCASC
Velocidad máxima media en intervalos de 10 minutos(hora)
DESCASC
Precipitaciones diarias en mm
DESCASC
Precipitaciones de 00:00 a 06:00 en mm
DESCASC
Precipitaciones de 06:00 a 12:00 en mm
DESCASC
Precipitaciones de 12:00 a 18:00 en mm
DESCASC
Precipitaciones de 18:00 a 24:00 en mm
DESCASC
19-10-2017 15.1 (15:20) 4.4 (06:30) 9.8 9.17 (18:40) 6.11 (18:20) 0 0 0 0 0
18-10-2017 13.3 (17:00) 8.2 (23:59) 10.8 10.83 (13:30) 7.78 (13:30) 4.4 1.4 2.2 0.6 0.2
17-10-2017 19.4 (00:30) 11.5 (23:40) 15.4 14.17 (14:20) 10.83 (14:50) 0.4 0 0.2 0.2 0
16-10-2017 26.4 (15:30) 16.4 (08:10) 21.4 11.39 (13:20) 7.5 (06:40) 0 0 0 0 0
15-10-2017 29.7 (14:10) 19.7 (00:00) 24.7 15.83 (17:20) 10.83 (17:20) 0 0 0 0 0
14-10-2017 29.2 (17:30) 9.5 (00:00) 19.4 8.06 (18:40) 5.83 (18:40) 0 0 0 0 0
13-10-2017 27.7 (17:50) 11.6 (00:00) 19.7 8.33 (16:20) 4.72 (16:10) 0 0 0 0 0
12-10-2017 28.2 (16:30) 8.6 (00:00) 18.4 6.39 (18:40) 3.89 (19:00) 0 0 0 0 0
11-10-2017 26.1 (16:00) 10.7 (00:00) 18.4 9.72 (15:00) 5 (13:40) 0 0 0 0 0
10-10-2017 25.6 (17:30) 6.4 (00:00) 16 4.72 (14:50) 2.5 (14:10) 0 0 0 0 0
09-10-2017 26.1 (17:50) 4.8 (00:00) 15.5 5 (13:00) 2.78 (15:00) 0 0 0 0 0
08-10-2017 26.4 (17:10) 6.4 (00:00) 16.4 4.72 (14:20) 3.06 (14:10) 0 0 0 0 0
07-10-2017 24.7 (17:30) 5.2 (00:00) 15 8.33 (12:00) 5.83 (12:00) 0 0 0 0 0
06-10-2017 25.5 (17:40) 8.9 (00:00) 17.2 9.17 (13:10) 6.94 (13:30) 0 0 0 0 0
05-10-2017 30.1 (16:40) 12.7 (00:00) 21.4 7.78 (15:10) 4.44 (23:30) 0 0 0 0 0
04-10-2017 29.8 (18:00) 9.7 (00:00) 19.7 4.72 (17:00) 3.06 (03:50) 0 0 0 0 0
03-10-2017 29.4 (17:00) 13.8 (00:00) 21.6 8.06 (15:50) 5.28 (15:50) 0 0 0 0 0
02-10-2017 26.8 (17:00) 12.3 (00:00) 19.5 7.5 (16:10) 3.89 (16:20) 0 0 0 0 0
01-10-2017 25.1 (17:00) 11.3 (00:00) 18.2 6.67 (00:10) 4.72 (00:10) 0 0 0 0 0
30-09-2017 25.2 (17:30) 13.8 (00:00) 19.5 10 (16:00) 5.28 (23:50) 0 0 0 0 0
29-09-2017 27.7 (17:50) 13.2 (00:00) 20.5 10 (18:00) 5.83 (18:00) 0 0 0 0 0
28-09-2017 27.6 (18:10) 10.2 (00:00) 18.9 6.67 (14:00) 4.17 (01:50) 0 0 0 0 0
27-09-2017 27.7 (16:40) 8.4 (00:00) 18.1 8.33 (16:10) 5 (19:40) 0 0 0 0 0
26-09-2017 24.5 (17:20) 6 (00:00) 15.3 6.39 (18:00) 3.89 (00:20) 0 0 0 0 0
25-09-2017 22.3 (16:40) 10.6 (00:00) 16.4 7.22 (16:10) 4.17 (15:00) 0 0 0 0 0
24-09-2017 28.2 (16:40) 11.4 (00:00) 19.8 12.78 (14:00) 8.33 (14:00) 0 0 0 0 0
23-09-2017 27.4 (17:30) 8.8 (00:00) 18.1 9.72 (16:30) 5.83 (17:10) 0 0 0 0 0
22-09-2017 25.5 (18:20) 9.4 (00:00) 17.4 6.67 (15:20) 3.33 (15:50) 0 0 0 0 0
21-09-2017 25.6 (14:40) 10.8 (00:00) 18.2 8.33 (15:40) 5.56 (18:00) 0 0 0 0 0
20-09-2017 26.6 (17:30) 6 (00:00) 16.3 5 (18:00) 2.78 (12:50) 0 0 0 0 0

Gráficas

Temp. máximas Temp. mínimas Temp. medias Precipitaciones Rachas de viento máximas Velocidades máximas media en intervalos de 10 minutos

Datos horarios

Fecha y hora oficial Temperatura (ºC) Velocidad del viento (km/h) Dirección del viento Racha (km/h) Dirección de racha Precipitación (mm) Presión (hPa) Tendencia (hPa) Humedad (%)
2017-10-19 23:00:00 11.7 9 Sudoeste 22 Sudoeste 0 -- -- 87
2017-10-19 22:00:00 12.3 14 Sudoeste 19 Sudoeste 0 -- -- 83
2017-10-19 21:00:00 12.9 12 Sudoeste 23 Sudoeste 0 -- -- 76
2017-10-19 20:00:00 13.4 16 Sudoeste 29 Sudoeste 0 -- -- 71
2017-10-19 19:00:00 13.5 19 Oeste 33 Oeste 0 -- -- 64
2017-10-19 18:00:00 13.7 19 Sudoeste 28 Oeste 0 -- -- 63
2017-10-19 17:00:00 14 17 Oeste 28 Oeste 0 -- -- 60
2017-10-19 16:00:00 14.8 19 Oeste 31 Oeste 0 -- -- 54
2017-10-19 15:00:00 14.4 19 Oeste 27 Oeste 0 -- -- 56
2017-10-19 14:00:00 12.9 13 Sudoeste 23 Oeste 0 -- -- 70
2017-10-19 13:00:00 12.5 13 Sudoeste 22 Oeste 0 -- -- 71
2017-10-19 12:00:00 11.4 12 Sudoeste 19 Sudoeste 0 -- -- 82
2017-10-19 11:00:00 9.4 9 Sudoeste 13 Sudoeste 0 -- -- 94
2017-10-19 10:00:00 6.5 4 Sudoeste 10 Sudoeste 0 -- -- 97
2017-10-19 09:00:00 4.7 5 Sudoeste 8 Sudoeste 0 -- -- 96
2017-10-19 08:00:00 4.9 4 Sudoeste 10 Sudoeste 0 -- -- 95
2017-10-19 07:00:00 4.7 5 Sudoeste 7 Sudoeste 0 -- -- 96
2017-10-19 06:00:00 5.3 6 Sudoeste 9 Sudoeste 0 -- -- 95
2017-10-19 05:00:00 5.7 4 Sudoeste 10 Sudoeste 0 -- -- 95
2017-10-19 04:00:00 6 7 Sudoeste 14 Sudoeste 0 -- -- 94
2017-10-19 03:00:00 6.6 9 Sudoeste 21 Sudoeste 0 -- -- 93
2017-10-19 02:00:00 6.5 9 Sudoeste 12 Sudoeste 0 -- -- 92
2017-10-19 01:00:00 7.1 4 Sudoeste 16 Oeste 0 -- -- 91
2017-10-19 00:00:00 8.2 11 Oeste 22 Oeste 0 -- -- 87
2017-10-18 23:00:00 8.8 16 Oeste 27 Oeste 0.2 -- -- 84
2017-10-18 22:00:00 9.6 17 Oeste 30 Oeste 0 -- -- 81
2017-10-18 21:00:00 9.3 15 Oeste 24 Sudoeste 0 -- -- 84
2017-10-18 20:00:00 9.9 13 Oeste 27 Oeste 0 -- -- 82
2017-10-18 19:00:00 11.6 21 Oeste 31 Oeste 0 -- -- 75
2017-10-18 18:00:00 12.2 24 Sudoeste 35 Sudoeste 0 -- -- 69
2017-10-18 17:00:00 13.3 19 Oeste 31 Oeste 0 -- -- 66
2017-10-18 16:00:00 11.9 18 Oeste 32 Oeste 0 -- -- 77
2017-10-18 15:00:00 11.3 18 Oeste 35 Oeste 0.4 -- -- 82
2017-10-18 14:00:00 10.2 20 Oeste 39 Oeste 0.2 -- -- 87
2017-10-18 13:00:00 11.8 19 Sudoeste 31 Oeste 0 -- -- 80
2017-10-18 12:00:00 11 19 Sudoeste 29 Sudoeste 0 -- -- 84
2017-10-18 11:00:00 10.4 20 Sudoeste 28 Sudoeste 0 -- -- 85
2017-10-18 10:00:00 10.1 13 Sudoeste 24 Sur 0.2 -- -- 92
2017-10-18 09:00:00 9.9 16 Sur 25 Sudoeste 0.4 -- -- 92
2017-10-18 08:00:00 10 21 Sudoeste 29 Sur 0.6 -- -- 91
2017-10-18 07:00:00 10.2 19 Sur 36 Sudoeste 1 -- -- 90
2017-10-18 06:00:00 10.7 14 Sur 27 Sudoeste 1 -- -- 90
2017-10-18 05:00:00 11 19 Sur 27 Sur 0.4 -- -- 85
2017-10-18 04:00:00 12 12 Sur 19 Sur 0 -- -- 69
2017-10-18 03:00:00 11.9 10 Sudoeste 23 Sur 0 -- -- 69
2017-10-18 02:00:00 12 18 Sur 25 Sur 0 -- -- 70
2017-10-18 01:00:00 11.1 16 Sur 21 Sur 0 -- -- 73
2017-10-18 00:00:00 11.5 10 Sudoeste 21 Sudoeste 0 -- -- 65
2017-10-17 23:00:00 12.4 18 Sudoeste 25 Sudoeste 0 -- -- 62
2017-10-17 22:00:00 13.3 17 Sudoeste 32 Sudoeste 0 -- -- 70
2017-10-17 21:00:00 14.5 22 Sudoeste 35 Sudoeste 0 -- -- 65
2017-10-17 20:00:00 15.7 24 Sudoeste 42 Sur 0 -- -- 54
2017-10-17 19:00:00 16.7 32 Sudoeste 49 Sur 0 -- -- 59
2017-10-17 18:00:00 17.7 26 Sudoeste 44 Sudoeste 0 -- -- 55
2017-10-17 17:00:00 17.7 28 Sudoeste 50 Sudoeste 0 -- -- 63
2017-10-17 16:00:00 17.7 35 Sudoeste 51 Sur 0 -- -- 65
2017-10-17 15:00:00 18.1 36 Sudoeste 51 Sudoeste 0 -- -- 65
2017-10-17 14:00:00 16.6 32 Sudoeste 44 Sudoeste 0.2 -- -- 74
2017-10-17 13:00:00 16.5 22 Sudoeste 31 Sudoeste 0 -- -- 74
2017-10-17 12:00:00 15.7 23 Sudoeste 37 Sur 0 -- -- 78
2017-10-17 11:00:00 15.7 22 Sur 33 Sur 0.2 -- -- 76
2017-10-17 10:00:00 16.1 15 Sudoeste 24 Sudoeste 0 -- -- 69
2017-10-17 09:00:00 16.6 15 Sudoeste 27 Sudoeste 0 -- -- 62
2017-10-17 08:00:00 17.3 19 Sudoeste 25 Sudoeste 0 -- -- 59
2017-10-17 07:00:00 17.2 14 Sur 19 Sur 0 -- -- 51
2017-10-17 06:00:00 16.7 11 Sur 16 Sudeste 0 -- -- 51
2017-10-17 05:00:00 16.1 13 Sur 18 Sudeste 0 -- -- 58
2017-10-17 04:00:00 17.2 12 Sur 17 Sudoeste 0 -- -- 57
2017-10-17 03:00:00 18.2 12 Sur 18 Sur 0 -- -- 39
2017-10-17 02:00:00 18.4 8 Sudoeste 22 Sudoeste 0 -- -- 37
2017-10-17 01:00:00 19.4 13 Sur 18 Sudeste 0 -- -- 35
2017-10-17 00:00:00 19.3 11 Sudeste 17 Sudeste 0 -- -- 34
2017-10-16 23:00:00 20 12 Sudeste 15 Sudeste 0 -- -- 36
2017-10-16 22:00:00 20.3 9 Sur 13 Sudoeste 0 -- -- 35
2017-10-16 21:00:00 21 8 Sur 19 Sudoeste 0 -- -- 32
2017-10-16 20:00:00 21.9 8 Sudoeste 21 Sudoeste 0 -- -- 31
2017-10-16 19:00:00 23.4 15 Sudoeste 24 Sudoeste 0 -- -- 28
2017-10-16 18:00:00 24.1 17 Sudoeste 28 Sudoeste 0 -- -- 26
2017-10-16 17:00:00 25.2 19 Sudoeste 33 Sudoeste 0 -- -- 25
2017-10-16 16:00:00 26.1 18 Sudoeste 34 Sudoeste 0 -- -- 23
2017-10-16 15:00:00 25.9 17 Sudoeste 33 Sudoeste 0 -- -- 23
2017-10-16 14:00:00 25.5 16 Sur 41 Sur 0 -- -- 23
2017-10-16 13:00:00 24.1 22 Sudoeste 35 Sudoeste 0 -- -- 26
2017-10-16 12:00:00 23.4 18 Sur 24 Sur 0 -- -- 27
2017-10-16 11:00:00 21.9 16 Sur 28 Sur 0 -- -- 31
2017-10-16 10:00:00 18.9 20 Sur 30 Sur 0 -- -- 38
2017-10-16 09:00:00 16.9 23 Sur 31 Sur 0 -- -- 41
2017-10-16 08:00:00 16.7 21 Sur 31 Sudoeste 0 -- -- 42
2017-10-16 07:00:00 17.4 25 Sur 34 Sur 0 -- -- 41
2017-10-16 06:00:00 17.1 21 Sur 29 Sur 0 -- -- 44
2017-10-16 05:00:00 17.3 20 Sur 31 Sur 0 -- -- 45
2017-10-16 04:00:00 18.6 23 Sur 32 Sur 0 -- -- 42
2017-10-16 03:00:00 17.9 20 Sur 33 Sur 0 -- -- 44
2017-10-16 02:00:00 19.1 22 Sur 32 Sur 0 -- -- 43
2017-10-16 01:00:00 19.5 23 Sur 32 Sudeste 0 -- -- 42
2017-10-16 00:00:00 19.7 24 Sur 31 Sur 0 -- -- 42
2017-10-15 23:00:00 20.2 19 Sur 25 Sur 0 -- -- 39
2017-10-15 22:00:00 20.4 17 Sur 19 Sur 0 -- -- 36
2017-10-15 21:00:00 21.2 13 Sur 16 Sur 0 -- -- 34
2017-10-15 20:00:00 23.2 5 Sur 8 Sudoeste 0 -- -- 34
2017-10-15 19:00:00 26.1 5 Oeste 25 Oeste 0 -- -- 30
2017-10-15 18:00:00 26.7 19 Sudeste 57 Sur 0 -- -- 27
2017-10-15 17:00:00 27.3 33 Sur 49 Sur 0 -- -- 25
2017-10-15 16:00:00 28.6 15 Sur 38 Sudeste 0 -- -- 22
2017-10-15 15:00:00 29.7 18 Sudeste 37 Sudeste 0 -- -- 21
2017-10-15 14:00:00 29.4 15 Sur 28 Sur 0 -- -- 22
2017-10-15 13:00:00 28.1 15 Sur 23 Sur 0 -- -- 24
2017-10-15 12:00:00 27.6 17 Sur 26 Sur 0 -- -- 26
2017-10-15 11:00:00 24.7 19 Sur 27 Sur 0 -- -- 31
2017-10-15 10:00:00 22.1 18 Sur 24 Sur 0 -- -- 35
2017-10-15 09:00:00 20.7 16 Sur 22 Oeste 0 -- -- 37
2017-10-15 08:00:00 21.5 16 Sudoeste 27 Sur 0 -- -- 36
2017-10-15 07:00:00 21.4 18 Sur 24 Sur 0 -- -- 35
2017-10-15 06:00:00 22.4 14 Sudoeste 28 Sudoeste 0 -- -- 32
2017-10-15 05:00:00 21.3 15 Sur 23 Sur 0 -- -- 34
2017-10-15 04:00:00 21.3 13 Sur 22 Sur 0 -- -- 35
2017-10-15 03:00:00 21 17 Sudoeste 22 Sur 0 -- -- 35
2017-10-15 02:00:00 20.8 9 Sudoeste 14 Sur 0 -- -- 33
2017-10-15 01:00:00 20.9 9 Sudoeste 17 Sudoeste 0 -- -- 32
2017-10-15 00:00:00 20.6 10 Sur 14 Sur 0 -- -- 33
2017-10-14 23:00:00 21.2 10 Sudoeste 15 Sudoeste 0 -- -- 31
2017-10-14 22:00:00 21.7 8 Sudoeste 14 Sudoeste 0 -- -- 30
2017-10-14 21:00:00 22.4 9 Sudoeste 15 Sudoeste 0 -- -- 29
2017-10-14 20:00:00 24.5 8 Sudoeste 24 Oeste 0 -- -- 25
2017-10-14 19:00:00 27.1 18 Oeste 29 Oeste 0 -- -- 22
2017-10-14 18:00:00 28.9 14 Oeste 26 Oeste 0 -- -- 21
2017-10-14 17:00:00 28.5 10 Noroeste 23 Sudoeste 0 -- -- 22
2017-10-14 16:00:00 27.2 9 Sudoeste 26 Sudoeste 0 -- -- 23
2017-10-14 15:00:00 27.1 13 Oeste 21 Oeste 0 -- -- 22
2017-10-14 14:00:00 26.2 9 Sudoeste 18 Sudoeste 0 -- -- 24
2017-10-14 13:00:00 24.1 8 Norte 16 Nordeste 0 -- -- 30
2017-10-14 12:00:00 21.7 3 Norte 6 Norte 0 -- -- 34
2017-10-14 11:00:00 18.3 3 Noroeste 5 Noroeste 0 -- -- 43
2017-10-14 10:00:00 13.3 0 Calma 3 Oeste 0 -- -- 54
2017-10-14 09:00:00 10 2 Oeste 5 Sudoeste 0 -- -- 60
2017-10-14 08:00:00 9.9 3 Este 5 Nordeste 0 -- -- 57
2017-10-14 07:00:00 11 2 Norte 7 Oeste 0 -- -- 54
2017-10-14 06:00:00 13.4 4 Oeste 7 Oeste 0 -- -- 49
2017-10-14 05:00:00 14.7 4 Sudoeste 11 Sudoeste 0 -- -- 48
2017-10-14 04:00:00 15.3 6 Sudoeste 12 Sudoeste 0 -- -- 45
2017-10-14 03:00:00 15.5 8 Sudoeste 11 Sudoeste 0 -- -- 45
2017-10-14 02:00:00 15.3 6 Sudoeste 10 Sudoeste 0 -- -- 44
2017-10-14 01:00:00 15.6 8 Sudoeste 21 Sudoeste 0 -- -- 43
2017-10-14 00:00:00 16.9 16 Sudoeste 23 Sudoeste 0 -- -- 40
2017-10-13 23:00:00 18 9 Sudoeste 15 Sudoeste 0 -- -- 37
2017-10-13 22:00:00 18.7 3 Sudoeste 9 Sur 0 -- -- 33
2017-10-13 21:00:00 20.3 2 Sur 7 Sudoeste 0 -- -- 31
2017-10-13 20:00:00 23.4 3 Oeste 10 Noroeste 0 -- -- 30
2017-10-13 19:00:00 25.4 9 Nordeste 21 Norte 0 -- -- 29
2017-10-13 18:00:00 27.6 15 Sudoeste 23 Oeste 0 -- -- 21
2017-10-13 17:00:00 27.4 13 Sudoeste 30 Sudoeste 0 -- -- 20
2017-10-13 16:00:00 27.3 6 Oeste 24 Sudoeste 0 -- -- 25
2017-10-13 15:00:00 26.5 13 Sudoeste 28 Sudoeste 0 -- -- 30
2017-10-13 14:00:00 25.8 11 Sudoeste 25 Oeste 0 -- -- 30
2017-10-13 13:00:00 24.4 3 Oeste 11 Nordeste 0 -- -- 36
2017-10-13 12:00:00 21.2 7 Norte 11 Norte 0 -- -- 37
2017-10-13 11:00:00 18.9 2 Este 5 Este 0 -- -- 43
2017-10-13 10:00:00 14.6 0 Calma 4 Nordeste 0 -- -- 53
2017-10-13 09:00:00 12 3 Norte 8 Sudeste 0 -- -- 59
2017-10-13 08:00:00 12.4 3 Sudeste 6 Este 0 -- -- 59
2017-10-13 07:00:00 13.5 0 Calma 13 Sudoeste 0 -- -- 54
2017-10-13 06:00:00 15.4 9 Sudoeste 13 Sudoeste 0 -- -- 50
2017-10-13 05:00:00 15.4 9 Sudoeste 15 Sudoeste 0 -- -- 49
2017-10-13 04:00:00 14.9 7 Sudoeste 12 Sudoeste 0 -- -- 48
2017-10-13 03:00:00 16 7 Sudoeste 13 Sudoeste 0 -- -- 45
2017-10-13 02:00:00 17.3 10 Sudoeste 16 Sudoeste 0 -- -- 41
2017-10-13 01:00:00 16.9 6 Sudoeste 13 Sudoeste 0 -- -- 38
2017-10-13 00:00:00 16.1 6 Sur 11 Norte 0 -- -- 34
2017-10-12 23:00:00 16.5 0 Calma 4 Sur 0 -- -- 29
2017-10-12 22:00:00 19.2 0 Calma 12 Sudeste 0 -- -- 27
2017-10-12 21:00:00 20.3 9 Sur 16 Sur 0 -- -- 25
2017-10-12 20:00:00 23.2 11 Nordeste 18 Nordeste 0 -- -- 22
2017-10-12 19:00:00 26.5 14 Nordeste 23 Nordeste 0 -- -- 20
2017-10-12 18:00:00 27.4 12 Nordeste 19 Nordeste 0 -- -- 20
2017-10-12 17:00:00 27.8 6 Nordeste 15 Nordeste 0 -- -- 19
2017-10-12 16:00:00 27.5 9 Este 14 Este 0 -- -- 19
2017-10-12 15:00:00 26.4 5 Este 23 Sudeste 0 -- -- 19
2017-10-12 14:00:00 24.9 9 Este 21 Este 0 -- -- 21
2017-10-12 13:00:00 23 11 Este 20 Este 0 -- -- 23
2017-10-12 12:00:00 20.3 6 Este 12 Sudeste 0 -- -- 25
2017-10-12 11:00:00 15.8 0 Calma 6 Noroeste 0 -- -- 32
2017-10-12 10:00:00 12.6 3 Nordeste 9 Nordeste 0 -- -- 36
2017-10-12 09:00:00 9.4 0 Calma 4 Norte 0 -- -- 39
2017-10-12 08:00:00 9.5 0 Calma 4 Sudoeste 0 -- -- 38
2017-10-12 07:00:00 9.2 0 Calma 4 Sudoeste 0 -- -- 37
2017-10-12 06:00:00 9 0 Calma 4 Sudoeste 0 -- -- 36
2017-10-12 05:00:00 9.9 3 Sudoeste 4 Sudoeste 0 -- -- 33
2017-10-12 04:00:00 10.1 2 Sur 5 Sudoeste 0 -- -- 32
2017-10-12 03:00:00 11.4 2 Sudoeste 12 Sudoeste 0 -- -- 31
2017-10-12 02:00:00 12.1 3 Sudoeste 9 Sudoeste 0 -- -- 31
2017-10-12 01:00:00 14.1 9 Sudoeste 12 Sudoeste 0 -- -- 30
2017-10-12 00:00:00 13.6 5 Sudoeste 6 Sudoeste 0 -- -- 29
2017-10-11 23:00:00 14.2 3 Sur 6 Sur 0 -- -- 28
2017-10-11 22:00:00 15.3 3 Sur 5 Sur 0 -- -- 27
2017-10-11 21:00:00 17.6 3 Sudoeste 11 Oeste 0 -- -- 23
2017-10-11 20:00:00 21.3 9 Oeste 21 Noroeste 0 -- -- 20
2017-10-11 19:00:00 24.3 14 Noroeste 24 Oeste 0 -- -- 18
2017-10-11 18:00:00 25.5 17 Oeste 30 Oeste 0 -- -- 19
2017-10-11 17:00:00 26 15 Oeste 30 Oeste 0 -- -- 20
2017-10-11 16:00:00 26.1 16 Oeste 29 Oeste 0 -- -- 21
2017-10-11 15:00:00 25.4 18 Oeste 35 Sudoeste 0 -- -- 22
2017-10-11 14:00:00 25.1 16 Oeste 30 Oeste 0 -- -- 23
2017-10-11 13:00:00 23.8 13 Oeste 18 Oeste 0 -- -- 23
2017-10-11 12:00:00 20.9 4 Norte 8 Norte 0 -- -- 28
2017-10-11 11:00:00 17.7 3 Sudeste 6 Nordeste 0 -- -- 31
2017-10-11 10:00:00 13.9 0 Calma 12 Nordeste 0 -- -- 37
2017-10-11 09:00:00 10.7 3 Norte 8 Sudoeste 0 -- -- 40
2017-10-11 08:00:00 12.5 6 Sudoeste 12 Sudoeste 0 -- -- 37
2017-10-11 07:00:00 12.5 4 Sur 12 Sudoeste 0 -- -- 37
2017-10-11 06:00:00 13.8 9 Sudoeste 14 Sudoeste 0 -- -- 35
2017-10-11 05:00:00 13.8 8 Sudoeste 14 Sudoeste 0 -- -- 33
2017-10-11 04:00:00 13.3 8 Sudoeste 10 Sudoeste 0 -- -- 32
2017-10-11 03:00:00 13.7 2 Sudoeste 9 Sudoeste 0 -- -- 29
2017-10-11 02:00:00 14.6 6 Sudoeste 17 Sudoeste 0 -- -- 28
2017-10-11 01:00:00 14.4 4 Sudoeste 9 Sudoeste 0 -- -- 27
2017-10-11 00:00:00 14.7 6 Sudoeste 9 Sudoeste 0 -- -- 28
2017-10-10 23:00:00 13.4 0 Calma 5 Sudoeste 0 -- -- 28
2017-10-10 22:00:00 14.7 3 Sudoeste 5 Sudoeste 0 -- -- 26
2017-10-10 21:00:00 17.4 5 Norte 11 Nordeste 0 -- -- 24
2017-10-10 20:00:00 20 8 Nordeste 12 Norte 0 -- -- 21
2017-10-10 19:00:00 24.4 8 Norte 12 Norte 0 -- -- 18
2017-10-10 18:00:00 25.4 7 Norte 11 Norte 0 -- -- 17
2017-10-10 17:00:00 25 7 Nordeste 13 Norte 0 -- -- 18
2017-10-10 16:00:00 25.3 5 Norte 11 Norte 0 -- -- 18
2017-10-10 15:00:00 24.2 6 Nordeste 17 Sudoeste 0 -- -- 19
2017-10-10 14:00:00 22.2 9 Norte 15 Nordeste 0 -- -- 21
2017-10-10 13:00:00 19.8 6 Nordeste 14 Nordeste 0 -- -- 25
2017-10-10 12:00:00 17.5 6 Norte 10 Norte 0 -- -- 29
2017-10-10 11:00:00 14.6 0 Calma 4 Sur -- -- -- 33
2017-10-10 10:00:00 11 4 Norte 8 Norte 0 -- -- 39
2017-10-10 09:00:00 6.4 0 Calma -- -- 0 -- -- 39
2017-10-10 08:00:00 6.7 0 Calma -- -- 0 -- -- 39
2017-10-10 07:00:00 7.1 0 Calma 3 Sudoeste 0 -- -- 36
2017-10-10 06:00:00 8.9 0 Calma 5 Sudoeste 0 -- -- 32
2017-10-10 05:00:00 8.9 0 Calma 7 Sudoeste 0 -- -- 33
2017-10-10 04:00:00 10.5 3 Sudoeste 5 Sudoeste 0 -- -- 33
2017-10-10 03:00:00 10.6 3 Sudoeste 4 Sudoeste 0 -- -- 31
2017-10-10 02:00:00 11.2 2 Sudoeste 6 Sudoeste 0 -- -- 31
2017-10-10 01:00:00 11.6 2 Sudoeste 4 Sudoeste 0 -- -- 30
2017-10-10 00:00:00 12.3 3 Sudoeste 5 Sudoeste 0 -- -- 28
2017-10-09 23:00:00 13.4 3 Sudoeste 6 Sudoeste 0 -- -- 28
2017-10-09 22:00:00 14.1 0 Calma 3 Sudoeste 0 -- -- 25
2017-10-09 21:00:00 17.4 0 Calma 9 Nordeste 0 -- -- 23
2017-10-09 20:00:00 20.7 8 Nordeste 13 Norte 0 -- -- 19
2017-10-09 19:00:00 24.6 8 Norte 14 Norte 0 -- -- 17
2017-10-09 18:00:00 26 6 Norte 14 Noroeste 0 -- -- 17
2017-10-09 17:00:00 26 4 Oeste 15 Norte 0 -- -- 17
2017-10-09 16:00:00 25.1 5 Noroeste 18 Norte 0 -- -- 17
2017-10-09 15:00:00 23.9 10 Nordeste 15 Nordeste 0 -- -- 19
2017-10-09 14:00:00 21.5 8 Nordeste 15 Nordeste 0 -- -- 23
2017-10-09 13:00:00 19.3 9 Nordeste 18 Nordeste 0 -- -- 26
2017-10-09 12:00:00 16.4 5 Norte 10 Nordeste 0 -- -- 32
2017-10-09 11:00:00 13.8 5 Norte 8 Nordeste 0 -- -- 37
2017-10-09 10:00:00 10.2 0 Calma 2 Noroeste 0 -- -- 42
2017-10-09 09:00:00 5.2 0 Calma -- -- 0 -- -- 46
2017-10-09 08:00:00 5.6 0 Calma -- -- 0 -- -- 43
2017-10-09 07:00:00 7.3 0 Calma 10 Norte 0 -- -- 36
2017-10-09 06:00:00 7.7 5 Norte 10 Norte 0 -- -- 36
2017-10-09 05:00:00 8.3 0 Calma 4 Este 0 -- -- 33
2017-10-09 04:00:00 9.3 2 Este 5 Este 0 -- -- 32
2017-10-09 03:00:00 9.7 0 Calma 6 Sudoeste 0 -- -- 31
2017-10-09 02:00:00 11.1 0 Calma 14 Nordeste 0 -- -- 29
2017-10-09 01:00:00 11.4 0 Calma 3 Sudoeste 0 -- -- 27
2017-10-09 00:00:00 11.9 0 Calma 4 Sudoeste 0 -- -- 26
2017-10-08 23:00:00 12.9 3 Sudoeste 4 Sudoeste 0 -- -- 24
2017-10-08 22:00:00 14.3 3 Sudoeste 5 Sudoeste 0 -- -- 23
2017-10-08 21:00:00 16.9 2 Sudoeste 5 Nordeste 0 -- -- 21
2017-10-08 20:00:00 21.4 3 Norte 10 Noroeste 0 -- -- 17
2017-10-08 19:00:00 25.8 8 Noroeste 14 Noroeste 0 -- -- 16
2017-10-08 18:00:00 26 8 Norte 15 Norte 0 -- -- 16
2017-10-08 17:00:00 26.2 9 Norte 15 Norte 0 -- -- 16
2017-10-08 16:00:00 25.3 6 Norte 15 Norte 0 -- -- 17
2017-10-08 15:00:00 23.8 8 Nordeste 17 Nordeste 0 -- -- 17
2017-10-08 14:00:00 22.1 9 Nordeste 14 Nordeste 0 -- -- 17
2017-10-08 13:00:00 20.2 7 Norte 13 Norte 0 -- -- 21
2017-10-08 12:00:00 17.2 9 Norte 12 Norte 0 -- -- 24
2017-10-08 11:00:00 14.4 0 Calma 5 Noroeste 0 -- -- 26
2017-10-08 10:00:00 10.3 0 Calma 3 Sudoeste 0 -- -- 29
2017-10-08 09:00:00 6.6 0 Calma 9 Norte 0 -- -- 30
2017-10-08 08:00:00 7.2 8 Norte 10 Norte 0 -- -- 27
2017-10-08 07:00:00 6.8 0 Calma -- -- 0 -- -- 26
2017-10-08 06:00:00 6.8 0 Calma 4 Sudoeste 0 -- -- 25
2017-10-08 05:00:00 7.4 0 Calma 4 Sudoeste 0 -- -- 23
2017-10-08 04:00:00 8.6 0 Calma -- -- 0 -- -- 23
2017-10-08 03:00:00 9.5 0 Calma 5 Sudoeste 0 -- -- 21
2017-10-08 02:00:00 9.3 0 Calma 4 Sudoeste 0 -- -- 22
2017-10-08 01:00:00 10.7 0 Calma 4 Norte 0 -- -- 21
2017-10-08 00:00:00 11.7 0 Calma 4 Sudoeste 0 -- -- 21
2017-10-07 23:00:00 12 3 Sudoeste 4 Sudoeste 0 -- -- 21
2017-10-07 22:00:00 14.1 4 Sudoeste 6 Sudoeste 0 -- -- 20
2017-10-07 21:00:00 16.1 5 Norte 8 Nordeste 0 -- -- 18
2017-10-07 20:00:00 20.2 6 Nordeste 12 Nordeste 0 -- -- 15
2017-10-07 19:00:00 24.2 11 Nordeste 24 Nordeste 0 -- -- 12
2017-10-07 18:00:00 24.5 15 Nordeste 25 Este 0 -- -- 12
2017-10-07 17:00:00 24.6 14 Nordeste 26 Este 0 -- -- 11
2017-10-07 16:00:00 24.1 14 Nordeste 26 Nordeste 0 -- -- 12
2017-10-07 15:00:00 22 15 Nordeste 28 Nordeste 0 -- -- 19
2017-10-07 14:00:00 19.2 17 Nordeste 24 Nordeste 0 -- -- 26
2017-10-07 13:00:00 16.4 14 Nordeste 28 Nordeste 0 -- -- 32
2017-10-07 12:00:00 14.4 21 Nordeste 30 Nordeste 0 -- -- 36
2017-10-07 11:00:00 11.6 12 Nordeste 18 Nordeste 0 -- -- 55
2017-10-07 10:00:00 9.3 12 Nordeste 15 Nordeste 0 -- -- 71
2017-10-07 09:00:00 5.4 8 Nordeste 14 Nordeste 0 -- -- 86
2017-10-07 08:00:00 5.4 4 Nordeste 15 Nordeste 0 -- -- 84
2017-10-07 07:00:00 6.1 11 Nordeste 15 Nordeste 0 -- -- 84
2017-10-07 06:00:00 7.2 12 Norte 18 Norte 0 -- -- 83
2017-10-07 05:00:00 8.4 14 Nordeste 17 Nordeste 0 -- -- 83
2017-10-07 04:00:00 8.3 8 Nordeste 15 Nordeste 0 -- -- 76
2017-10-07 03:00:00 10.4 10 Nordeste 20 Este 0 -- -- 74
2017-10-07 02:00:00 11.8 15 Este 18 Este 0 -- -- 69
2017-10-07 01:00:00 12.6 12 Este 24 Este 0 -- -- 63
2017-10-07 00:00:00 14.8 15 Este 23 Este 0 -- -- 59
2017-10-06 23:00:00 16.6 14 Este 20 Nordeste 0 -- -- 55
2017-10-06 22:00:00 17.6 10 Este 19 Este 0 -- -- 49
2017-10-06 21:00:00 18.8 14 Este 19 Este 0 -- -- 44
2017-10-06 20:00:00 21.5 13 Este 25 Nordeste 0 -- -- 37
2017-10-06 19:00:00 24.3 16 Nordeste 29 Nordeste 0 -- -- 31
2017-10-06 18:00:00 25.1 19 Nordeste 30 Nordeste 0 -- -- 27
2017-10-06 17:00:00 25.3 18 Nordeste 31 Nordeste 0 -- -- 26
2017-10-06 16:00:00 25 19 Nordeste 32 Este 0 -- -- 25
2017-10-06 15:00:00 24.3 22 Nordeste 32 Nordeste 0 -- -- 28
2017-10-06 14:00:00 22 22 Nordeste 33 Nordeste 0 -- -- 38
2017-10-06 13:00:00 19.7 19 Nordeste 28 Nordeste 0 -- -- 48
2017-10-06 12:00:00 16.7 17 Nordeste 22 Nordeste 0 -- -- 55
2017-10-06 11:00:00 14.4 13 Nordeste 18 Nordeste 0 -- -- 70
2017-10-06 10:00:00 12.2 9 Norte 12 Norte 0 -- -- 82
2017-10-06 09:00:00 9.5 5 Nordeste 13 Norte 0 -- -- 89
2017-10-06 08:00:00 9.7 5 Nordeste 13 Norte 0 -- -- 88
2017-10-06 07:00:00 10.3 7 Nordeste 12 Norte 0 -- -- 85
2017-10-06 06:00:00 11.2 9 Norte 15 Nordeste 0 -- -- 82
2017-10-06 05:00:00 12.5 12 Nordeste 15 Nordeste 0 -- -- 77
2017-10-06 04:00:00 13.9 6 Nordeste 23 Nordeste 0 -- -- 70
2017-10-06 03:00:00 14.6 15 Nordeste 18 Nordeste 0 -- -- 70
2017-10-06 02:00:00 15.5 11 Nordeste 15 Nordeste 0 -- -- 65
2017-10-06 01:00:00 16.5 12 Nordeste 15 Nordeste 0 -- -- 60
2017-10-06 00:00:00 18.1 12 Nordeste 20 Nordeste 0 -- -- 46
2017-10-05 23:00:00 18.3 3 Sudoeste 5 Sudoeste 0 -- -- 35
2017-10-05 22:00:00 18.8 0 Calma 3 Sudoeste 0 -- -- 32
2017-10-05 21:00:00 21.2 2 Sudeste 10 Nordeste 0 -- -- 32
2017-10-05 20:00:00 25.4 7 Nordeste 15 Norte 0 -- -- 24
2017-10-05 19:00:00 29.1 8 Norte 19 Norte 0 -- -- 24
2017-10-05 18:00:00 29.4 11 Norte 22 Norte 0 -- -- 25
2017-10-05 17:00:00 30 9 Noroeste 19 Norte 0 -- -- 26
2017-10-05 16:00:00 29.7 8 Norte 28 Norte 0 -- -- 28
2017-10-05 15:00:00 28.9 12 Noroeste 25 Noroeste 0 -- -- 29
2017-10-05 14:00:00 27.6 11 Norte 20 Norte 0 -- -- 32
2017-10-05 13:00:00 27.1 12 Norte 17 Norte 0 -- -- 34
2017-10-05 12:00:00 24 4 Norte 11 Noroeste 0 -- -- 40
2017-10-05 11:00:00 21.9 7 Norte 10 Norte 0 -- -- 47
2017-10-05 10:00:00 17.6 3 Oeste 8 Sudoeste 0 -- -- 60
2017-10-05 09:00:00 13.3 5 Sudoeste 7 Sudoeste 0 -- -- 71
2017-10-05 08:00:00 13 3 Sudoeste 4 Sudoeste 0 -- -- 70
2017-10-05 07:00:00 14.6 0 Calma 6 Sudoeste 0 -- -- 64
2017-10-05 06:00:00 15.9 5 Sudoeste 6 Sudoeste 0 -- -- 64
2017-10-05 05:00:00 16.8 2 Sudoeste 12 Sudoeste 0 -- -- 59
2017-10-05 04:00:00 18 2 Oeste 11 Sudoeste 0 -- -- 57
2017-10-05 03:00:00 18.5 6 Sudoeste 12 Sur 0 -- -- 56
2017-10-05 02:00:00 17.9 4 Sudoeste 6 Sudoeste 0 -- -- 55
2017-10-05 01:00:00 17.8 5 Sudoeste 6 Sudoeste 0 -- -- 51
2017-10-05 00:00:00 17.8 0 Calma 4 Sudeste 0 -- -- 40
2017-10-04 23:00:00 19 4 Sudoeste 12 Sudoeste 0 -- -- 40
2017-10-04 22:00:00 20.3 5 Sudoeste 10 Nordeste 0 -- -- 36
2017-10-04 21:00:00 22.3 10 Nordeste 12 Nordeste 0 -- -- 33
2017-10-04 20:00:00 25.6 10 Nordeste 14 Nordeste 0 -- -- 29
2017-10-04 19:00:00 28.9 7 Norte 17 Norte 0 -- -- 26
2017-10-04 18:00:00 29.8 4 Norte 12 Noroeste 0 -- -- 26
2017-10-04 17:00:00 29.2 8 Oeste 17 Oeste 0 -- -- 28
2017-10-04 16:00:00 28.6 5 Sudoeste 15 Sudoeste 0 -- -- 30
2017-10-04 15:00:00 26.8 6 Este 15 Nordeste 0 -- -- 36
2017-10-04 14:00:00 23.8 9 Nordeste 16 Nordeste 0 -- -- 42
2017-10-04 13:00:00 20.8 9 Norte 15 Nordeste 0 -- -- 51
2017-10-04 12:00:00 18.4 6 Nordeste 13 Nordeste 0 -- -- 59
2017-10-04 11:00:00 15.9 8 Nordeste 13 Norte 0 -- -- 68
2017-10-04 10:00:00 13.5 6 Norte 9 Norte 0 -- -- 76
2017-10-04 09:00:00 9.7 0 Calma 2 Sudoeste 0 -- -- 77
2017-10-04 08:00:00 10.3 0 Calma 2 Noroeste 0 -- -- 77
2017-10-04 07:00:00 10.7 3 Noroeste 8 Nordeste 0 -- -- 76
2017-10-04 06:00:00 11.7 4 Nordeste 8 Nordeste 0 -- -- 69
2017-10-04 05:00:00 12.8 0 Calma 11 Norte 0 -- -- 64
2017-10-04 04:00:00 13.9 11 Norte 13 Norte 0 -- -- 62
2017-10-04 03:00:00 14.5 4 Sudeste 10 Sudeste 0 -- -- 57
2017-10-04 02:00:00 15.5 7 Sudeste 12 Sudeste 0 -- -- 59
2017-10-04 01:00:00 17 7 Sudeste 12 Este 0 -- -- 55
2017-10-04 00:00:00 19.3 9 Este 24 Este 0 -- -- 49
2017-10-03 23:00:00 18 9 Este 12 Este 0 -- -- 45
2017-10-03 22:00:00 20.1 5 Este 13 Nordeste 0 -- -- 38
2017-10-03 21:00:00 20.7 8 Nordeste 12 Nordeste 0 -- -- 39
2017-10-03 20:00:00 24.7 7 Nordeste 15 Norte 0 -- -- 32
2017-10-03 19:00:00 27.7 10 Norte 24 Norte 0 -- -- 27
2017-10-03 18:00:00 28.5 14 Norte 24 Norte 0 -- -- 24
2017-10-03 17:00:00 29.4 15 Norte 26 Norte 0 -- -- 27
2017-10-03 16:00:00 29.1 17 Norte 29 Noroeste 0 -- -- 31
2017-10-03 15:00:00 28.3 10 Noroeste 21 Norte 0 -- -- 37
2017-10-03 14:00:00 26.5 6 Norte 15 Norte 0 -- -- 45
2017-10-03 13:00:00 24.8 6 Noroeste 18 Norte 0 -- -- 49
2017-10-03 12:00:00 23.5 10 Norte 16 Norte 0 -- -- 53
2017-10-03 11:00:00 20.1 3 Norte 15 Norte 0 -- -- 62
2017-10-03 10:00:00 18.6 7 Norte 12 Norte 0 -- -- 66
2017-10-03 09:00:00 14.9 5 Sudoeste 8 Sudoeste 0 -- -- 78
2017-10-03 08:00:00 13.8 2 Sudoeste 6 Sudoeste 0 -- -- 73
2017-10-03 07:00:00 15.4 3 Sudoeste 6 Noroeste 0 -- -- 74
2017-10-03 06:00:00 16.3 8 Norte 19 Norte 0 -- -- 72
2017-10-03 05:00:00 16.9 4 Sudoeste 6 Sudoeste 0 -- -- 70
2017-10-03 04:00:00 18.6 4 Sudoeste 10 Sudoeste 0 -- -- 64
2017-10-03 03:00:00 18 4 Sudoeste 10 Sur 0 -- -- 64
2017-10-03 02:00:00 18.6 3 Sur 6 Sur 0 -- -- 63
2017-10-03 01:00:00 19.3 2 Sudoeste 12 Sudeste 0 -- -- 60
2017-10-03 00:00:00 18.9 5 Sudeste 12 Este 0 -- -- 61
2017-10-02 23:00:00 19.6 3 Sudoeste 6 Sudoeste 0 -- -- 55
2017-10-02 22:00:00 20.6 3 Sudoeste 5 Sudoeste 0 -- -- 51
2017-10-02 21:00:00 23.1 4 Sudoeste 5 Sur 0 -- -- 47
2017-10-02 20:00:00 25.4 5 Norte 14 Nordeste 0 -- -- 44
2017-10-02 19:00:00 26.6 5 Nordeste 15 Nordeste 0 -- -- 43
2017-10-02 18:00:00 26.8 10 Nordeste 18 Nordeste 0 -- -- 42
2017-10-02 17:00:00 26.8 6 Este 27 Este 0 -- -- 43
2017-10-02 16:00:00 26.2 11 Nordeste 23 Nordeste 0 -- -- 44
2017-10-02 15:00:00 25.5 12 Nordeste 22 Nordeste 0 -- -- 45
2017-10-02 14:00:00 24.7 10 Este 22 Nordeste 0 -- -- 47
2017-10-02 13:00:00 23.4 9 Nordeste 24 Este 0 -- -- 47
2017-10-02 12:00:00 21.7 11 Nordeste 17 Nordeste 0 -- -- 49
2017-10-02 11:00:00 20.1 7 Este 10 Este 0 -- -- 53
2017-10-02 10:00:00 17.1 6 Norte 10 Nordeste 0 -- -- 64
2017-10-02 09:00:00 12.7 0 Calma 5 Norte 0 -- -- 73
2017-10-02 08:00:00 12.3 2 Nordeste 4 Oeste 0 -- -- 69
2017-10-02 07:00:00 13.5 3 Sudoeste 4 Sudoeste 0 -- -- 68
2017-10-02 06:00:00 14.2 5 Sudoeste 8 Norte 0 -- -- 65
2017-10-02 05:00:00 13.1 2 Norte 6 Norte 0 -- -- 64
2017-10-02 04:00:00 14.3 3 Sudoeste 6 Sur 0 -- -- 61
2017-10-02 03:00:00 14.5 3 Sudoeste 5 Sur 0 -- -- 63
2017-10-02 02:00:00 15 3 Sudoeste 4 Sudoeste 0 -- -- 56
2017-10-02 01:00:00 15.2 0 Calma 4 Sudoeste 0 -- -- 53
2017-10-02 00:00:00 16.3 2 Sudoeste 3 Sudoeste 0 -- -- 51
2017-10-01 23:00:00 18.5 0 Calma 9 Este 0 -- -- 48
2017-10-01 22:00:00 20.5 6 Este 10 Este 0 -- -- 46
2017-10-01 21:00:00 21.4 8 Este 11 Nordeste 0 -- -- 44
2017-10-01 20:00:00 23.1 10 Nordeste 17 Nordeste 0 -- -- 41
2017-10-01 19:00:00 23.9 10 Nordeste 17 Norte 0 -- -- 39
2017-10-01 18:00:00 24.4 7 Norte 21 Norte 0 -- -- 38
2017-10-01 17:00:00 25.1 14 Nordeste 23 Norte 0 -- -- 37
2017-10-01 16:00:00 24.9 9 Norte 21 Norte 0 -- -- 39
2017-10-01 15:00:00 23.4 7 Norte 19 Nordeste 0 -- -- 41
2017-10-01 14:00:00 22.1 10 Nordeste 23 Norte 0 -- -- 44
2017-10-01 13:00:00 20.5 10 Nordeste 18 Nordeste 0 -- -- 49
2017-10-01 12:00:00 19.2 10 Nordeste 16 Nordeste 0 -- -- 54
2017-10-01 11:00:00 17.3 6 Nordeste 11 Nordeste 0 -- -- 61
2017-10-01 10:00:00 14.5 7 Norte 12 Norte 0 -- -- 76
2017-10-01 09:00:00 11.4 4 Norte 7 Noroeste 0 -- -- 85
2017-10-01 08:00:00 11.5 4 Norte 6 Norte 0 -- -- 85
2017-10-01 07:00:00 11.7 0 Calma 6 Sudoeste 0 -- -- 81
2017-10-01 06:00:00 11.9 0 Calma 10 Norte 0 -- -- 81
2017-10-01 05:00:00 11.9 7 Nordeste 13 Norte 0 -- -- 80
2017-10-01 04:00:00 13.1 12 Norte 13 Norte 0 -- -- 79
2017-10-01 03:00:00 13.4 6 Norte 12 Norte 0 -- -- 72
2017-10-01 02:00:00 14.2 6 Norte 10 Norte 0 -- -- 65
2017-10-01 01:00:00 15.9 3 Noroeste 24 Noroeste 0 -- -- 59
2017-10-01 00:00:00 17.1 17 Noroeste 30 Norte 0 -- -- 56
2017-09-30 23:00:00 18.1 14 Noroeste 21 Noroeste 0 -- -- 52
2017-09-30 22:00:00 18.1 4 Sudoeste 5 Sudoeste 0 -- -- 51
2017-09-30 21:00:00 18.8 3 Norte 8 Norte 0 -- -- 46
2017-09-30 20:00:00 22 8 Norte 18 Norte 0 -- -- 45
2017-09-30 19:00:00 23.3 13 Norte 22 Noroeste 0 -- -- 40
2017-09-30 18:00:00 24.5 14 Noroeste 29 Noroeste 0 -- -- 34
2017-09-30 17:00:00 24.6 11 Noroeste 28 Noroeste 0 -- -- 34
2017-09-30 16:00:00 24.1 17 Noroeste 36 Noroeste 0 -- -- 42
2017-09-30 15:00:00 22.8 14 Noroeste 23 Noroeste 0 -- -- 51
2017-09-30 14:00:00 22.3 12 Norte 22 Noroeste 0 -- -- 55
2017-09-30 13:00:00 20.3 12 Noroeste 21 Oeste 0 -- -- 62
2017-09-30 12:00:00 18.3 8 Oeste 17 Oeste 0 -- -- 68
2017-09-30 11:00:00 16.7 8 Oeste 14 Oeste 0 -- -- 73
2017-09-30 10:00:00 15.5 8 Sudoeste 10 Sudoeste 0 -- -- 77
2017-09-30 09:00:00 14 6 Sudoeste 10 Noroeste 0 -- -- 77
2017-09-30 08:00:00 14.4 5 Noroeste 9 Oeste 0 -- -- 80
2017-09-30 07:00:00 14 4 Sudoeste 9 Sudoeste 0 -- -- 73
2017-09-30 06:00:00 14.3 6 Sudoeste 9 Sudoeste 0 -- -- 68
2017-09-30 05:00:00 14.6 3 Sudoeste 5 Oeste 0 -- -- 71
2017-09-30 04:00:00 15.8 5 Oeste 9 Sudoeste 0 -- -- 69
2017-09-30 03:00:00 16.1 5 Sudoeste 10 Sudoeste 0 -- -- 67
2017-09-30 02:00:00 15.8 5 Sudoeste 10 Oeste 0 -- -- 57
2017-09-30 01:00:00 17.1 4 Sudoeste 8 Oeste 0 -- -- 51
2017-09-30 00:00:00 16.7 3 Sudoeste 6 Sudoeste 0 -- -- 48
2017-09-29 23:00:00 18.4 3 Sudoeste 7 Sudoeste 0 -- -- 44
2017-09-29 22:00:00 20.5 0 Calma 10 Noroeste 0 -- -- 41
2017-09-29 21:00:00 22.5 7 Noroeste 13 Noroeste 0 -- -- 40
2017-09-29 20:00:00 24.7 11 Noroeste 16 Noroeste 0 -- -- 36
2017-09-29 19:00:00 26.4 12 Noroeste 25 Oeste 0 -- -- 34
2017-09-29 18:00:00 27.5 21 Oeste 36 Noroeste 0 -- -- 31
2017-09-29 17:00:00 26.3 13 Oeste 32 Oeste 0 -- -- 33
2017-09-29 16:00:00 26.8 15 Sudoeste 31 Sudoeste 0 -- -- 34
2017-09-29 15:00:00 26.3 12 Sudoeste 25 Sur 0 -- -- 34
2017-09-29 14:00:00 25.4 10 Sur 20 Sur 0 -- -- 35
2017-09-29 13:00:00 24.6 9 Sudoeste 17 Sudoeste 0 -- -- 37
2017-09-29 12:00:00 22.5 2 Sudoeste 7 Noroeste 0 -- -- 43
2017-09-29 11:00:00 20.4 3 Oeste 8 Oeste 0 -- -- 49
2017-09-29 10:00:00 16.3 5 Oeste 9 Noroeste 0 -- -- 60
2017-09-29 09:00:00 14.6 5 Sudoeste 9 Sudoeste 0 -- -- 62
2017-09-29 08:00:00 13.4 7 Sudoeste 10 Sudoeste 0 -- -- 61
2017-09-29 07:00:00 13.3 8 Sudoeste 10 Sudoeste 0 -- -- 55
2017-09-29 06:00:00 13.2 6 Sudoeste 11 Oeste 0 -- -- 53
2017-09-29 05:00:00 14.3 7 Sudoeste 10 Sudoeste 0 -- -- 54
2017-09-29 04:00:00 17.5 4 Noroeste 16 Noroeste 0 -- -- 48
2017-09-29 03:00:00 16 5 Sudoeste 9 Sudoeste 0 -- -- 50
2017-09-29 02:00:00 15.9 3 Sur 13 Sudoeste 0 -- -- 44
2017-09-29 01:00:00 16.8 11 Sudoeste 17 Sudoeste 0 -- -- 39
2017-09-29 00:00:00 17.8 12 Sudoeste 15 Sudoeste 0 -- -- 36
2017-09-28 23:00:00 18.6 11 Sudoeste 19 Sudoeste 0 -- -- 33
2017-09-28 22:00:00 19.2 6 Sudoeste 8 Sudoeste 0 -- -- 30
2017-09-28 21:00:00 21.3 6 Sudoeste 15 Oeste 0 -- -- 28
2017-09-28 20:00:00 25.3 12 Oeste 19 Sur 0 -- -- 25
2017-09-28 19:00:00 27.1 11 Sudoeste 20 Oeste 0 -- -- 24
2017-09-28 18:00:00 27.4 8 Sudoeste 20 Oeste 0 -- -- 25
2017-09-28 17:00:00 27.2 5 Sudeste 24 Oeste 0 -- -- 27
2017-09-28 16:00:00 27 5 Sudoeste 21 Sudoeste 0 -- -- 26
2017-09-28 15:00:00 26.5 7 Sudeste 19 Sur 0 -- -- 27
2017-09-28 14:00:00 25.3 10 Sudeste 24 Sur 0 -- -- 27
2017-09-28 13:00:00 24.5 8 Sur 16 Sur 0 -- -- 28
2017-09-28 12:00:00 23.3 4 Sur 13 Sur 0 -- -- 32
2017-09-28 11:00:00 21.3 8 Sur 13 Sur 0 -- -- 40
2017-09-28 10:00:00 16.5 0 Calma 9 Sudoeste 0 -- -- 54
2017-09-28 09:00:00 11.3 3 Sudoeste 4 Sudoeste 0 -- -- 63
2017-09-28 08:00:00 11.1 0 Calma 6 Sudoeste 0 -- -- 58
2017-09-28 07:00:00 12 3 Sudoeste 10 Sudoeste 0 -- -- 59
2017-09-28 06:00:00 12.4 8 Sudoeste 9 Sudoeste 0 -- -- 55
2017-09-28 05:00:00 13.3 5 Sudoeste 16 Sudoeste 0 -- -- 52
2017-09-28 04:00:00 14.3 5 Sudoeste 12 Sudoeste 0 -- -- 50
2017-09-28 03:00:00 14.7 7 Sudoeste 20 Sudoeste 0 -- -- 48
2017-09-28 02:00:00 16 15 Sudoeste 21 Oeste 0 -- -- 43
2017-09-28 01:00:00 15.9 10 Sudoeste 15 Sudoeste 0 -- -- 41
2017-09-28 00:00:00 16.5 9 Sudoeste 14 Sudoeste 0 -- -- 36
2017-09-27 23:00:00 17.1 9 Sudoeste 11 Sudoeste 0 -- -- 34
2017-09-27 22:00:00 18.6 5 Sudoeste 8 Oeste 0 -- -- 31
2017-09-27 21:00:00 21.6 5 Oeste 15 Sudoeste 0 -- -- 26
2017-09-27 20:00:00 24.8 12 Oeste 22 Oeste 0 -- -- 24
2017-09-27 19:00:00 26.9 9 Oeste 28 Oeste 0 -- -- 21
2017-09-27 18:00:00 27.4 8 Noroeste 24 Noroeste 0 -- -- 21
2017-09-27 17:00:00 27.3 15 Oeste 30 Oeste 0 -- -- 19
2017-09-27 16:00:00 27 9 Oeste 27 Noroeste 0 -- -- 22
2017-09-27 15:00:00 26 17 Sudoeste 27 Oeste 0 -- -- 23
2017-09-27 14:00:00 25.1 9 Sur 26 Sudoeste 0 -- -- 26
2017-09-27 13:00:00 24.2 9 Sudoeste 19 Sudoeste 0 -- -- 29
2017-09-27 12:00:00 22.5 4 Sudeste 12 Sudeste 0 -- -- 31
2017-09-27 11:00:00 18.9 5 Sudeste 11 Sudeste 0 -- -- 38
2017-09-27 10:00:00 14.5 4 Sudeste 6 Sudeste 0 -- -- 48
2017-09-27 09:00:00 8.6 0 Calma 3 Nordeste 0 -- -- 58
2017-09-27 08:00:00 10 3 Nordeste 10 Norte 0 -- -- 52
2017-09-27 07:00:00 10.4 6 Norte 8 Norte 0 -- -- 53
2017-09-27 06:00:00 11.3 4 Sudoeste 6 Sudoeste 0 -- -- 51
2017-09-27 05:00:00 10.5 2 Sudoeste 4 Sudoeste 0 -- -- 50
2017-09-27 04:00:00 11.6 3 Sudoeste 5 Sudoeste 0 -- -- 50
2017-09-27 03:00:00 11.5 2 Sur 7 Sudeste 0 -- -- 49
2017-09-27 02:00:00 12.8 0 Calma 9 Sudeste 0 -- -- 48
2017-09-27 01:00:00 12 2 Sur 5 Sudoeste 0 -- -- 46
2017-09-27 00:00:00 12.7 0 Calma 4 Sudoeste 0 -- -- 46
2017-09-26 23:00:00 14 0 Calma 4 Este 0 -- -- 43
2017-09-26 22:00:00 16.3 0 Calma 10 Norte 0 -- -- 40
2017-09-26 21:00:00 18 7 Nordeste 9 Este 0 -- -- 37
2017-09-26 20:00:00 22.5 6 Este 9 Norte 0 -- -- 29
2017-09-26 19:00:00 23.8 9 Norte 13 Sudoeste 0 -- -- 28
2017-09-26 18:00:00 24.5 6 Oeste 23 Sudoeste 0 -- -- 28
2017-09-26 17:00:00 24 4 Sudeste 12 Este 0 -- -- 29
2017-09-26 16:00:00 22.9 8 Este 18 Noroeste 0 -- -- 31
2017-09-26 15:00:00 22.3 9 Sudeste 20 Sudeste 0 -- -- 34
2017-09-26 14:00:00 21.1 8 Este 19 Sudeste 0 -- -- 40
2017-09-26 13:00:00 19.1 8 Este 19 Este 0 -- -- 49
2017-09-26 12:00:00 16.6 9 Este 14 Nordeste 0 -- -- 58
2017-09-26 11:00:00 14.2 8 Nordeste 14 Nordeste 0 -- -- 69
2017-09-26 10:00:00 11.6 6 Nordeste 9 Norte 0 -- -- 80
2017-09-26 09:00:00 7.4 0 Calma -- -- 0 -- -- 90
2017-09-26 08:00:00 6.2 0 Calma -- -- 0 -- -- 84
2017-09-26 07:00:00 7.4 0 Calma -- -- 0 -- -- 80
2017-09-26 06:00:00 8.5 0 Calma 5 Norte 0 -- -- 77
2017-09-26 05:00:00 9 6 Norte 9 Nordeste 0 -- -- 78
2017-09-26 04:00:00 9.6 6 Norte 10 Nordeste 0 -- -- 73
2017-09-26 03:00:00 10.1 2 Este 6 Nordeste 0 -- -- 67
2017-09-26 02:00:00 11.2 4 Norte 10 Norte 0 -- -- 61
2017-09-26 01:00:00 13 2 Norte 21 Nordeste 0 -- -- 51
2017-09-26 00:00:00 12.2 0 Calma 5 Sudoeste 0 -- -- 49
2017-09-25 23:00:00 13.7 2 Sudoeste 5 Nordeste 0 -- -- 46
2017-09-25 22:00:00 15.3 6 Nordeste 10 Nordeste 0 -- -- 40
2017-09-25 21:00:00 16.7 5 Norte 9 Norte 0 -- -- 37
2017-09-25 20:00:00 20.8 9 Norte 14 Norte 0 -- -- 34
2017-09-25 19:00:00 21.9 13 Norte 22 Norte 0 -- -- 32
2017-09-25 18:00:00 22 12 Norte 23 Noroeste 0 -- -- 34
2017-09-25 17:00:00 22 10 Norte 26 Noroeste 0 -- -- 33
2017-09-25 16:00:00 22 13 Noroeste 24 Noroeste 0 -- -- 36
2017-09-25 15:00:00 21.5 15 Noroeste 25 Noroeste 0 -- -- 41
2017-09-25 14:00:00 20.4 11 Norte 21 Noroeste 0 -- -- 45
2017-09-25 13:00:00 18.8 9 Oeste 19 Norte 0 -- -- 49
2017-09-25 12:00:00 17.7 10 Norte 22 Norte 0 -- -- 55
2017-09-25 11:00:00 16.6 11 Norte 19 Norte 0 -- -- 61
2017-09-25 10:00:00 14.3 8 Oeste 13 Oeste 0 -- -- 72
2017-09-25 09:00:00 11.1 7 Oeste 14 Oeste 0 -- -- 84
2017-09-25 08:00:00 10.6 8 Oeste 12 Oeste 0 -- -- 86
2017-09-25 07:00:00 11.5 8 Oeste 10 Oeste 0 -- -- 83
2017-09-25 06:00:00 13.1 7 Noroeste 20 Oeste 0 -- -- 81
2017-09-25 05:00:00 14.7 8 Oeste 16 Noroeste 0 -- -- 78
2017-09-25 04:00:00 16.5 12 Noroeste 19 Noroeste 0 -- -- 72
2017-09-25 03:00:00 16.1 8 Oeste 13 Oeste 0 -- -- 64
2017-09-25 02:00:00 16 5 Oeste 10 Oeste 0 -- -- 52
2017-09-25 01:00:00 15.4 6 Sudoeste 11 Oeste 0 -- -- 33
2017-09-25 00:00:00 17.6 11 Oeste 18 Sudoeste 0 -- -- 28
2017-09-24 23:00:00 18.8 12 Sudoeste 18 Sudoeste 0 -- -- 24
2017-09-24 22:00:00 18.9 8 Sudoeste 18 Oeste 0 -- -- 23
2017-09-24 21:00:00 21.8 13 Oeste 22 Oeste 0 -- -- 20
2017-09-24 20:00:00 24.6 16 Oeste 32 Sudoeste 0 -- -- 19
2017-09-24 19:00:00 26.6 28 Sudoeste 44 Sudoeste 0 -- -- 17
2017-09-24 18:00:00 27.5 26 Sudoeste 39 Sudoeste 0 -- -- 19
2017-09-24 17:00:00 28 29 Sudoeste 45 Sudoeste 0 -- -- 21
2017-09-24 16:00:00 27.7 24 Oeste 41 Oeste 0 -- -- 26
2017-09-24 15:00:00 27.1 26 Oeste 42 Oeste 0 -- -- 26
2017-09-24 14:00:00 26 30 Sudoeste 46 Oeste 0 -- -- 28
2017-09-24 13:00:00 25 22 Sudoeste 35 Sudoeste 0 -- -- 31
2017-09-24 12:00:00 23.5 17 Sudoeste 26 Sudoeste 0 -- -- 32
2017-09-24 11:00:00 21.1 10 Sur 15 Sur 0 -- -- 40
2017-09-24 10:00:00 16.5 2 Sudoeste 5 Sudoeste 0 -- -- 54
2017-09-24 09:00:00 12.6 4 Sur 8 Sur 0 -- -- 65
2017-09-24 08:00:00 11.9 4 Sudoeste 8 Sudoeste 0 -- -- 65
2017-09-24 07:00:00 11.7 4 Sudoeste 8 Sudoeste 0 -- -- 62
2017-09-24 06:00:00 12.2 4 Sudoeste 8 Sudoeste 0 -- -- 58
2017-09-24 05:00:00 12.8 3 Sur 7 Sudoeste 0 -- -- 52
2017-09-24 04:00:00 13.8 5 Sudoeste 9 Sudoeste 0 -- -- 51
2017-09-24 03:00:00 14.7 5 Sudoeste 7 Sudoeste 0 -- -- 50
2017-09-24 02:00:00 16.3 0 Calma 9 Oeste 0 -- -- 45
2017-09-24 01:00:00 15.7 3 Sudoeste 10 Sudoeste 0 -- -- 43
2017-09-24 00:00:00 16.8 8 Sudoeste 14 Sudoeste 0 -- -- 42
2017-09-23 23:00:00 17.7 2 Sur 3 Sudoeste 0 -- -- 39
2017-09-23 22:00:00 18.9 2 Sur 12 Oeste 0 -- -- 36
2017-09-23 21:00:00 21.7 8 Oeste 17 Oeste 0 -- -- 33
2017-09-23 20:00:00 24.3 14 Oeste 27 Oeste 0 -- -- 30
2017-09-23 19:00:00 26.5 17 Oeste 35 Oeste 0 -- -- 27
2017-09-23 18:00:00 27.2 17 Oeste 34 Oeste 0 -- -- 27
2017-09-23 17:00:00 26.9 14 Oeste 35 Oeste 0 -- -- 27
2017-09-23 16:00:00 26.5 13 Oeste 30 Sudoeste 0 -- -- 28
2017-09-23 15:00:00 26 15 Sudoeste 24 Sudoeste 0 -- -- 29
2017-09-23 14:00:00 24 6 Norte 17 Norte 0 -- -- 37
2017-09-23 13:00:00 22.3 10 Noroeste 17 Norte 0 -- -- 42
2017-09-23 12:00:00 20 7 Noroeste 13 Noroeste 0 -- -- 49
2017-09-23 11:00:00 17.3 5 Norte 9 Nordeste 0 -- -- 59
2017-09-23 10:00:00 13.6 2 Sudoeste 8 Sur 0 -- -- 71
2017-09-23 09:00:00 9.2 0 Calma 5 Sur 0 -- -- 78
2017-09-23 08:00:00 9.2 3 Oeste 8 Norte 0 -- -- 75
2017-09-23 07:00:00 10.2 0 Calma 5 Norte 0 -- -- 76
2017-09-23 06:00:00 11 3 Oeste 7 Norte 0 -- -- 70
2017-09-23 05:00:00 11 3 Noroeste 6 Sudoeste 0 -- -- 68
2017-09-23 04:00:00 12.5 3 Sudeste 14 Este 0 -- -- 66
2017-09-23 03:00:00 12.5 2 Sudoeste 3 Sudoeste 0 -- -- 58
2017-09-23 02:00:00 12.9 0 Calma 3 Sur 0 -- -- 55
2017-09-23 01:00:00 13.4 0 Calma 4 Sudoeste 0 -- -- 47
2017-09-23 00:00:00 14.5 0 Calma 5 Sudoeste 0 -- -- 44
2017-09-22 23:00:00 16.6 4 Sudoeste 10 Norte 0 -- -- 43
2017-09-22 22:00:00 17.9 8 Norte 13 Nordeste 0 -- -- 39
2017-09-22 21:00:00 19.3 6 Norte 8 Norte 0 -- -- 37
2017-09-22 20:00:00 23.1 6 Noroeste 12 Noroeste 0 -- -- 32
2017-09-22 19:00:00 24.6 5 Oeste 18 Oeste 0 -- -- 28
2017-09-22 18:00:00 25.3 9 Noroeste 19 Noroeste 0 -- -- 30
2017-09-22 17:00:00 25.1 9 Norte 19 Noroeste 0 -- -- 32
2017-09-22 16:00:00 23.9 8 Nordeste 24 Norte 0 -- -- 36
2017-09-22 15:00:00 22.9 10 Norte 19 Norte 0 -- -- 41
2017-09-22 14:00:00 21.3 8 Norte 19 Nordeste 0 -- -- 47
2017-09-22 13:00:00 19.2 7 Norte 14 Nordeste 0 -- -- 54
2017-09-22 12:00:00 16.9 8 Nordeste 18 Nordeste 0 -- -- 64
2017-09-22 11:00:00 14.8 11 Nordeste 15 Norte 0 -- -- 72
2017-09-22 10:00:00 12.9 8 Norte 13 Nordeste 0 -- -- 81
2017-09-22 09:00:00 10 7 Norte 10 Norte 0 -- -- 90
2017-09-22 08:00:00 9.7 4 Norte 12 Norte 0 -- -- 88
2017-09-22 07:00:00 9.7 7 Norte 12 Norte 0 -- -- 88
2017-09-22 06:00:00 9.8 6 Norte 9 Norte 0 -- -- 86
2017-09-22 05:00:00 10.4 8 Norte 10 Norte 0 -- -- 83
2017-09-22 04:00:00 11.4 9 Norte 11 Norte 0 -- -- 80
2017-09-22 03:00:00 11.8 8 Norte 10 Norte 0 -- -- 72
2017-09-22 02:00:00 12.9 6 Norte 15 Nordeste 0 -- -- 58
2017-09-22 01:00:00 14.7 11 Nordeste 18 Nordeste 0 -- -- 51
2017-09-22 00:00:00 15.4 4 Sudoeste 9 Oeste 0 -- -- 49
2017-09-21 23:00:00 15.1 2 Sudoeste 4 Sudoeste 0 -- -- 40
2017-09-21 22:00:00 16.6 3 Sudoeste 5 Oeste 0 -- -- 36
2017-09-21 21:00:00 19.9 2 Oeste 13 Noroeste 0 -- -- 33
2017-09-21 20:00:00 22.5 10 Noroeste 19 Oeste 0 -- -- 30
2017-09-21 19:00:00 22.7 14 Oeste 24 Oeste 0 -- -- 31
2017-09-21 18:00:00 23.6 20 Oeste 30 Oeste 0 -- -- 29
2017-09-21 17:00:00 24.3 17 Oeste 28 Oeste 0 -- -- 32
2017-09-21 16:00:00 25 17 Oeste 30 Oeste 0 -- -- 31
2017-09-21 15:00:00 25.5 14 Oeste 30 Sudoeste 0 -- -- 34
2017-09-21 14:00:00 24.9 17 Sudoeste 25 Sudoeste 0 -- -- 33
2017-09-21 13:00:00 23.7 8 Oeste 15 Sudoeste 0 -- -- 38
2017-09-21 12:00:00 22.1 5 Sudoeste 10 Oeste 0 -- -- 44
2017-09-21 11:00:00 19.9 5 Noroeste 14 Noroeste 0 -- -- 48
2017-09-21 10:00:00 15.9 6 Oeste 13 Sudoeste 0 -- -- 58
2017-09-21 09:00:00 11.2 2 Sudoeste 5 Sudoeste 0 -- -- 64
2017-09-21 08:00:00 11.1 4 Oeste 9 Sudoeste 0 -- -- 56
2017-09-21 07:00:00 11.9 9 Sudoeste 13 Sudoeste 0 -- -- 55
2017-09-21 06:00:00 12.4 2 Sudoeste 7 Sudoeste 0 -- -- 55
2017-09-21 05:00:00 13.4 7 Sudoeste 11 Sudoeste 0 -- -- 48
2017-09-21 04:00:00 14.5 5 Sudoeste 10 Sudoeste 0 -- -- 42
2017-09-21 03:00:00 14.5 6 Sudoeste 11 Sudoeste 0 -- -- 41
2017-09-21 02:00:00 15.3 7 Sudoeste 11 Sudoeste 0 -- -- 38
2017-09-21 01:00:00 15.2 7 Sudoeste 10 Sudoeste 0 -- -- 39
2017-09-21 00:00:00 17.1 3 Sur 7 Sur 0 -- -- 34
2017-09-20 23:00:00 17.1 4 Sudoeste 6 Sudoeste 0 -- -- 34
2017-09-20 22:00:00 18 0 Calma 10 Nordeste 0 -- -- 32
2017-09-20 21:00:00 19.9 9 Nordeste 12 Nordeste 0 -- -- 29
2017-09-20 20:00:00 24.4 8 Nordeste 15 Este 0 -- -- 24
2017-09-20 19:00:00 25.9 5 Este 14 Norte 0 -- -- 22
2017-09-20 18:00:00 26.1 8 Sur 18 Sur 0 -- -- 23
2017-09-20 17:00:00 26.3 3 Sur 15 Oeste 0 -- -- 24
2017-09-20 16:00:00 25.6 5 Sur 17 Noroeste 0 -- -- 25
2017-09-20 15:00:00 24.3 6 Sur 14 Este 0 -- -- 28
2017-09-20 14:00:00 22.5 6 Este 16 Nordeste 0 -- -- 31
2017-09-20 13:00:00 20.4 10 Nordeste 14 Norte 0 -- -- 35
2017-09-20 12:00:00 17.6 8 Norte 12 Norte 0 -- -- 40
2017-09-20 11:00:00 14.7 4 Norte 8 Norte 0 -- -- 48
2017-09-20 10:00:00 12 5 Norte 8 Norte 0 -- -- 53
2017-09-20 09:00:00 7.3 0 Calma -- -- 0 -- -- 64
2017-09-20 08:00:00 6.2 0 Calma -- -- 0 -- -- 62
2017-09-20 07:00:00 7 0 Calma -- -- 0 -- -- 62
2017-09-20 06:00:00 7.8 0 Calma 2 Norte 0 -- -- 58
2017-09-20 05:00:00 9.8 0 Calma 3 Nordeste 0 -- -- 56
2017-09-20 04:00:00 8.8 0 Calma 2 Noroeste 0 -- -- 55
2017-09-20 03:00:00 9.7 0 Calma 4 Sudoeste 0 -- -- 52
2017-09-20 02:00:00 10.6 3 Sudoeste 5 Sudoeste 0 -- -- 52
2017-09-20 01:00:00 11.3 0 Calma 4 Sudoeste 0 -- -- 50
2017-09-20 00:00:00 12.1 2 Sudoeste 4 Sudoeste 0 -- -- 46